sensor_id;sensor_type;location;lat;lon;timestamp;P1;durP1;ratioP1;P2;durP2;ratioP2
3359;SDS011;1693;49.602;11.046;2023-04-24T00:01:43;5.63;;;4.20;;
3359;SDS011;1693;49.602;11.046;2023-04-24T00:04:10;6.00;;;4.27;;
3359;SDS011;1693;49.602;11.046;2023-04-24T00:06:41;11.13;;;5.30;;
3359;SDS011;1693;49.602;11.046;2023-04-24T00:09:08;6.47;;;4.60;;
3359;SDS011;1693;49.602;11.046;2023-04-24T00:11:36;5.37;;;4.43;;
3359;SDS011;1693;49.602;11.046;2023-04-24T00:14:03;6.87;;;3.47;;
3359;SDS011;1693;49.602;11.046;2023-04-24T00:16:31;6.50;;;4.10;;
3359;SDS011;1693;49.602;11.046;2023-04-24T00:18:58;6.67;;;4.60;;
3359;SDS011;1693;49.602;11.046;2023-04-24T00:21:26;5.23;;;4.60;;
3359;SDS011;1693;49.602;11.046;2023-04-24T00:23:55;5.27;;;4.17;;
3359;SDS011;1693;49.602;11.046;2023-04-24T00:26:22;6.47;;;4.50;;
3359;SDS011;1693;49.602;11.046;2023-04-24T00:28:49;5.17;;;3.67;;
3359;SDS011;1693;49.602;11.046;2023-04-24T00:31:16;5.93;;;4.20;;
3359;SDS011;1693;49.602;11.046;2023-04-24T00:33:44;4.30;;;3.60;;
3359;SDS011;1693;49.602;11.046;2023-04-24T00:36:11;7.60;;;4.40;;
3359;SDS011;1693;49.602;11.046;2023-04-24T00:38:38;5.40;;;4.23;;
3359;SDS011;1693;49.602;11.046;2023-04-24T00:41:07;10.70;;;3.97;;
3359;SDS011;1693;49.602;11.046;2023-04-24T00:43:34;6.13;;;4.67;;
3359;SDS011;1693;49.602;11.046;2023-04-24T00:46:01;8.03;;;3.87;;
3359;SDS011;1693;49.602;11.046;2023-04-24T00:48:28;5.20;;;4.70;;
3359;SDS011;1693;49.602;11.046;2023-04-24T00:50:57;6.00;;;4.67;;
3359;SDS011;1693;49.602;11.046;2023-04-24T00:53:24;5.30;;;4.43;;
3359;SDS011;1693;49.602;11.046;2023-04-24T00:55:51;4.97;;;3.83;;
3359;SDS011;1693;49.602;11.046;2023-04-24T00:58:20;7.30;;;4.07;;
3359;SDS011;1693;49.602;11.046;2023-04-24T01:00:47;7.47;;;3.93;;
3359;SDS011;1693;49.602;11.046;2023-04-24T01:03:19;5.17;;;4.50;;
3359;SDS011;1693;49.602;11.046;2023-04-24T01:05:47;7.83;;;4.80;;
3359;SDS011;1693;49.602;11.046;2023-04-24T01:08:15;6.00;;;4.87;;
3359;SDS011;1693;49.602;11.046;2023-04-24T01:10:43;5.73;;;5.13;;
3359;SDS011;1693;49.602;11.046;2023-04-24T01:13:11;6.23;;;4.43;;
3359;SDS011;1693;49.602;11.046;2023-04-24T01:15:39;6.73;;;4.63;;
3359;SDS011;1693;49.602;11.046;2023-04-24T01:18:06;5.27;;;3.93;;
3359;SDS011;1693;49.602;11.046;2023-04-24T01:20:33;8.30;;;5.50;;
3359;SDS011;1693;49.602;11.046;2023-04-24T01:23:03;5.60;;;4.37;;
3359;SDS011;1693;49.602;11.046;2023-04-24T01:25:30;5.80;;;4.33;;
3359;SDS011;1693;49.602;11.046;2023-04-24T01:27:57;6.33;;;4.57;;
3359;SDS011;1693;49.602;11.046;2023-04-24T01:30:25;7.17;;;4.83;;
3359;SDS011;1693;49.602;11.046;2023-04-24T01:32:52;6.70;;;5.37;;
3359;SDS011;1693;49.602;11.046;2023-04-24T01:35:20;7.63;;;4.77;;
3359;SDS011;1693;49.602;11.046;2023-04-24T01:37:47;7.03;;;4.67;;
3359;SDS011;1693;49.602;11.046;2023-04-24T01:40:17;5.17;;;4.40;;
3359;SDS011;1693;49.602;11.046;2023-04-24T01:42:44;5.10;;;3.93;;
3359;SDS011;1693;49.602;11.046;2023-04-24T01:45:12;5.40;;;4.30;;
3359;SDS011;1693;49.602;11.046;2023-04-24T01:47:39;6.33;;;4.80;;
3359;SDS011;1693;49.602;11.046;2023-04-24T01:50:06;6.50;;;5.40;;
3359;SDS011;1693;49.602;11.046;2023-04-24T01:52:34;6.60;;;4.63;;
3359;SDS011;1693;49.602;11.046;2023-04-24T01:55:02;9.13;;;5.70;;
3359;SDS011;1693;49.602;11.046;2023-04-24T01:57:31;7.90;;;4.83;;
3359;SDS011;1693;49.602;11.046;2023-04-24T01:59:58;6.90;;;4.80;;
3359;SDS011;1693;49.602;11.046;2023-04-24T02:02:26;7.37;;;5.80;;
3359;SDS011;1693;49.602;11.046;2023-04-24T02:04:54;5.80;;;3.93;;
3359;SDS011;1693;49.602;11.046;2023-04-24T02:07:21;7.27;;;5.30;;
3359;SDS011;1693;49.602;11.046;2023-04-24T02:09:48;5.60;;;4.53;;
3359;SDS011;1693;49.602;11.046;2023-04-24T02:12:16;8.33;;;4.50;;
3359;SDS011;1693;49.602;11.046;2023-04-24T02:14:44;5.20;;;4.70;;
3359;SDS011;1693;49.602;11.046;2023-04-24T02:17:11;5.73;;;4.47;;
3359;SDS011;1693;49.602;11.046;2023-04-24T02:19:41;7.67;;;4.50;;
3359;SDS011;1693;49.602;11.046;2023-04-24T02:22:08;5.93;;;5.23;;
3359;SDS011;1693;49.602;11.046;2023-04-24T02:24:35;6.97;;;4.73;;
3359;SDS011;1693;49.602;11.046;2023-04-24T02:27:03;7.70;;;4.37;;
3359;SDS011;1693;49.602;11.046;2023-04-24T02:29:30;6.10;;;4.60;;
3359;SDS011;1693;49.602;11.046;2023-04-24T02:31:58;5.37;;;4.03;;
3359;SDS011;1693;49.602;11.046;2023-04-24T02:34:25;6.40;;;4.10;;
3359;SDS011;1693;49.602;11.046;2023-04-24T02:36:52;5.63;;;4.70;;
3359;SDS011;1693;49.602;11.046;2023-04-24T02:39:20;5.13;;;3.67;;
3359;SDS011;1693;49.602;11.046;2023-04-24T02:41:47;5.30;;;3.70;;
3359;SDS011;1693;49.602;11.046;2023-04-24T02:44:14;3.80;;;3.40;;
3359;SDS011;1693;49.602;11.046;2023-04-24T02:46:42;4.70;;;3.57;;
3359;SDS011;1693;49.602;11.046;2023-04-24T02:49:11;6.57;;;3.47;;
3359;SDS011;1693;49.602;11.046;2023-04-24T02:51:38;4.30;;;3.10;;
3359;SDS011;1693;49.602;11.046;2023-04-24T02:54:06;3.97;;;3.03;;
3359;SDS011;1693;49.602;11.046;2023-04-24T02:56:35;4.53;;;3.50;;
3359;SDS011;1693;49.602;11.046;2023-04-24T02:59:02;4.43;;;3.40;;
3359;SDS011;1693;49.602;11.046;2023-04-24T03:01:29;5.47;;;4.10;;
3359;SDS011;1693;49.602;11.046;2023-04-24T03:03:56;4.10;;;3.67;;
3359;SDS011;1693;49.602;11.046;2023-04-24T03:06:25;4.57;;;3.43;;
3359;SDS011;1693;49.602;11.046;2023-04-24T03:08:53;3.97;;;3.57;;
3359;SDS011;1693;49.602;11.046;2023-04-24T03:11:20;4.57;;;3.40;;
3359;SDS011;1693;49.602;11.046;2023-04-24T03:13:47;3.90;;;3.50;;
3359;SDS011;1693;49.602;11.046;2023-04-24T03:16:14;4.80;;;4.23;;
3359;SDS011;1693;49.602;11.046;2023-04-24T03:18:41;4.40;;;4.00;;
3359;SDS011;1693;49.602;11.046;2023-04-24T03:21:08;3.93;;;3.17;;
3359;SDS011;1693;49.602;11.046;2023-04-24T03:23:36;4.70;;;4.20;;
3359;SDS011;1693;49.602;11.046;2023-04-24T03:26:03;6.03;;;3.30;;
3359;SDS011;1693;49.602;11.046;2023-04-24T03:28:30;2.87;;;2.63;;
3359;SDS011;1693;49.602;11.046;2023-04-24T03:30:57;3.97;;;3.67;;
3359;SDS011;1693;49.602;11.046;2023-04-24T03:33:25;3.20;;;2.83;;
3359;SDS011;1693;49.602;11.046;2023-04-24T03:35:52;4.10;;;3.20;;
3359;SDS011;1693;49.602;11.046;2023-04-24T03:38:20;4.93;;;2.83;;
3359;SDS011;1693;49.602;11.046;2023-04-24T03:40:50;3.30;;;2.77;;
3359;SDS011;1693;49.602;11.046;2023-04-24T03:43:18;4.10;;;3.43;;
3359;SDS011;1693;49.602;11.046;2023-04-24T03:45:44;4.07;;;2.90;;
3359;SDS011;1693;49.602;11.046;2023-04-24T03:48:12;4.97;;;3.20;;
3359;SDS011;1693;49.602;11.046;2023-04-24T03:50:39;3.60;;;3.30;;
3359;SDS011;1693;49.602;11.046;2023-04-24T03:53:06;5.80;;;3.30;;
3359;SDS011;1693;49.602;11.046;2023-04-24T03:55:33;3.57;;;3.27;;
3359;SDS011;1693;49.602;11.046;2023-04-24T03:58:01;4.17;;;3.70;;
3359;SDS011;1693;49.602;11.046;2023-04-24T04:00:29;9.20;;;4.13;;
3359;SDS011;1693;49.602;11.046;2023-04-24T04:02:58;6.70;;;4.00;;
3359;SDS011;1693;49.602;11.046;2023-04-24T04:05:25;3.77;;;3.37;;
3359;SDS011;1693;49.602;11.046;2023-04-24T04:07:52;3.90;;;3.50;;
3359;SDS011;1693;49.602;11.046;2023-04-24T04:10:19;5.53;;;2.90;;
3359;SDS011;1693;49.602;11.046;2023-04-24T04:12:47;5.13;;;4.23;;
3359;SDS011;1693;49.602;11.046;2023-04-24T04:15:15;4.10;;;3.43;;
3359;SDS011;1693;49.602;11.046;2023-04-24T04:17:42;3.60;;;3.10;;
3359;SDS011;1693;49.602;11.046;2023-04-24T04:20:11;3.43;;;3.13;;
3359;SDS011;1693;49.602;11.046;2023-04-24T04:22:38;3.43;;;3.10;;
3359;SDS011;1693;49.602;11.046;2023-04-24T04:25:06;3.83;;;3.43;;
3359;SDS011;1693;49.602;11.046;2023-04-24T04:27:34;5.30;;;3.00;;
3359;SDS011;1693;49.602;11.046;2023-04-24T04:30:01;4.03;;;3.23;;
3359;SDS011;1693;49.602;11.046;2023-04-24T04:32:31;4.20;;;3.70;;
3359;SDS011;1693;49.602;11.046;2023-04-24T04:34:59;4.27;;;3.67;;
3359;SDS011;1693;49.602;11.046;2023-04-24T04:37:28;5.70;;;4.20;;
3359;SDS011;1693;49.602;11.046;2023-04-24T04:39:56;5.50;;;3.33;;
3359;SDS011;1693;49.602;11.046;2023-04-24T04:42:24;6.03;;;3.50;;
3359;SDS011;1693;49.602;11.046;2023-04-24T04:44:52;3.73;;;3.33;;
3359;SDS011;1693;49.602;11.046;2023-04-24T04:47:21;5.27;;;3.57;;
3359;SDS011;1693;49.602;11.046;2023-04-24T04:49:50;4.90;;;3.17;;
3359;SDS011;1693;49.602;11.046;2023-04-24T04:52:17;4.23;;;3.60;;
3359;SDS011;1693;49.602;11.046;2023-04-24T04:54:44;6.50;;;3.13;;
3359;SDS011;1693;49.602;11.046;2023-04-24T04:57:12;4.83;;;3.90;;
3359;SDS011;1693;49.602;11.046;2023-04-24T04:59:39;9.27;;;3.77;;
3359;SDS011;1693;49.602;11.046;2023-04-24T05:02:07;8.73;;;3.73;;
3359;SDS011;1693;49.602;11.046;2023-04-24T05:04:34;10.07;;;3.93;;
3359;SDS011;1693;49.602;11.046;2023-04-24T05:07:02;4.30;;;3.10;;
3359;SDS011;1693;49.602;11.046;2023-04-24T05:09:30;4.60;;;3.67;;
3359;SDS011;1693;49.602;11.046;2023-04-24T05:11:57;5.53;;;3.93;;
3359;SDS011;1693;49.602;11.046;2023-04-24T05:14:24;4.03;;;3.50;;
3359;SDS011;1693;49.602;11.046;2023-04-24T05:16:51;7.57;;;3.83;;
3359;SDS011;1693;49.602;11.046;2023-04-24T05:19:18;9.60;;;3.70;;
3359;SDS011;1693;49.602;11.046;2023-04-24T05:21:46;4.10;;;3.70;;
3359;SDS011;1693;49.602;11.046;2023-04-24T05:24:15;4.23;;;3.73;;
3359;SDS011;1693;49.602;11.046;2023-04-24T05:26:42;4.60;;;3.47;;
3359;SDS011;1693;49.602;11.046;2023-04-24T05:29:10;4.00;;;3.67;;
3359;SDS011;1693;49.602;11.046;2023-04-24T05:31:38;3.00;;;2.70;;
3359;SDS011;1693;49.602;11.046;2023-04-24T05:34:05;6.50;;;3.10;;
3359;SDS011;1693;49.602;11.046;2023-04-24T05:38:59;3.20;;;2.90;;
3359;SDS011;1693;49.602;11.046;2023-04-24T05:41:28;4.50;;;3.60;;
3359;SDS011;1693;49.602;11.046;2023-04-24T05:43:55;3.10;;;2.80;;
3359;SDS011;1693;49.602;11.046;2023-04-24T05:46:22;3.37;;;3.07;;
3359;SDS011;1693;49.602;11.046;2023-04-24T05:48:50;2.90;;;2.60;;
3359;SDS011;1693;49.602;11.046;2023-04-24T05:51:17;2.33;;;1.90;;
3359;SDS011;1693;49.602;11.046;2023-04-24T05:53:44;6.83;;;4.00;;
3359;SDS011;1693;49.602;11.046;2023-04-24T05:56:11;7.70;;;6.23;;
3359;SDS011;1693;49.602;11.046;2023-04-24T05:58:39;2.87;;;2.30;;
3359;SDS011;1693;49.602;11.046;2023-04-24T06:01:06;7.60;;;1.97;;
3359;SDS011;1693;49.602;11.046;2023-04-24T06:03:34;1.77;;;1.67;;
3359;SDS011;1693;49.602;11.046;2023-04-24T06:06:03;2.57;;;2.37;;
3359;SDS011;1693;49.602;11.046;2023-04-24T06:08:30;3.00;;;2.40;;
3359;SDS011;1693;49.602;11.046;2023-04-24T06:10:57;3.10;;;2.20;;
3359;SDS011;1693;49.602;11.046;2023-04-24T06:13:25;2.50;;;1.80;;
3359;SDS011;1693;49.602;11.046;2023-04-24T06:15:53;2.90;;;2.70;;
3359;SDS011;1693;49.602;11.046;2023-04-24T06:18:21;6.13;;;3.87;;
3359;SDS011;1693;49.602;11.046;2023-04-24T06:20:48;2.67;;;2.17;;
3359;SDS011;1693;49.602;11.046;2023-04-24T06:23:15;2.90;;;2.60;;
3359;SDS011;1693;49.602;11.046;2023-04-24T06:25:42;2.33;;;1.63;;
3359;SDS011;1693;49.602;11.046;2023-04-24T06:28:09;3.33;;;2.10;;
3359;SDS011;1693;49.602;11.046;2023-04-24T06:30:37;2.70;;;2.03;;
3359;SDS011;1693;49.602;11.046;2023-04-24T06:33:05;3.10;;;1.50;;
3359;SDS011;1693;49.602;11.046;2023-04-24T06:35:32;1.90;;;1.33;;
3359;SDS011;1693;49.602;11.046;2023-04-24T06:37:59;1.43;;;1.33;;
3359;SDS011;1693;49.602;11.046;2023-04-24T06:40:26;2.20;;;1.67;;
3359;SDS011;1693;49.602;11.046;2023-04-24T06:42:53;1.60;;;1.50;;
3359;SDS011;1693;49.602;11.046;2023-04-24T06:45:21;1.50;;;1.37;;
3359;SDS011;1693;49.602;11.046;2023-04-24T06:47:48;2.17;;;1.30;;
3359;SDS011;1693;49.602;11.046;2023-04-24T06:50:17;2.47;;;1.40;;
3359;SDS011;1693;49.602;11.046;2023-04-24T06:52:44;3.43;;;1.73;;
3359;SDS011;1693;49.602;11.046;2023-04-24T06:55:12;2.70;;;1.20;;
3359;SDS011;1693;49.602;11.046;2023-04-24T06:57:40;1.90;;;1.20;;
3359;SDS011;1693;49.602;11.046;2023-04-24T07:00:08;3.30;;;1.70;;
3359;SDS011;1693;49.602;11.046;2023-04-24T07:02:36;1.50;;;1.33;;
3359;SDS011;1693;49.602;11.046;2023-04-24T07:05:03;1.77;;;1.20;;
3359;SDS011;1693;49.602;11.046;2023-04-24T07:07:33;2.40;;;1.57;;
3359;SDS011;1693;49.602;11.046;2023-04-24T07:10:02;1.60;;;1.30;;
3359;SDS011;1693;49.602;11.046;2023-04-24T07:12:30;1.43;;;1.00;;
3359;SDS011;1693;49.602;11.046;2023-04-24T07:14:58;1.67;;;1.03;;
3359;SDS011;1693;49.602;11.046;2023-04-24T07:17:25;2.10;;;1.30;;
3359;SDS011;1693;49.602;11.046;2023-04-24T07:19:52;1.47;;;0.97;;
3359;SDS011;1693;49.602;11.046;2023-04-24T07:22:19;2.47;;;0.93;;
3359;SDS011;1693;49.602;11.046;2023-04-24T07:24:47;1.57;;;1.10;;
3359;SDS011;1693;49.602;11.046;2023-04-24T07:27:15;1.83;;;1.10;;
3359;SDS011;1693;49.602;11.046;2023-04-24T07:29:42;1.90;;;1.50;;
3359;SDS011;1693;49.602;11.046;2023-04-24T07:32:09;1.50;;;1.13;;
3359;SDS011;1693;49.602;11.046;2023-04-24T07:34:37;2.33;;;1.40;;
3359;SDS011;1693;49.602;11.046;2023-04-24T07:37:04;2.70;;;1.40;;
3359;SDS011;1693;49.602;11.046;2023-04-24T07:39:31;1.30;;;1.00;;
3359;SDS011;1693;49.602;11.046;2023-04-24T07:41:59;1.90;;;1.63;;
3359;SDS011;1693;49.602;11.046;2023-04-24T07:44:27;2.63;;;1.40;;
3359;SDS011;1693;49.602;11.046;2023-04-24T07:46:54;2.83;;;1.37;;
3359;SDS011;1693;49.602;11.046;2023-04-24T07:49:22;2.57;;;1.40;;
3359;SDS011;1693;49.602;11.046;2023-04-24T07:51:49;3.10;;;2.03;;
3359;SDS011;1693;49.602;11.046;2023-04-24T07:54:16;1.60;;;1.33;;
3359;SDS011;1693;49.602;11.046;2023-04-24T07:56:43;2.30;;;1.53;;
3359;SDS011;1693;49.602;11.046;2023-04-24T07:59:11;2.73;;;1.83;;
3359;SDS011;1693;49.602;11.046;2023-04-24T08:01:38;1.70;;;1.47;;
3359;SDS011;1693;49.602;11.046;2023-04-24T08:04:05;2.00;;;1.57;;
3359;SDS011;1693;49.602;11.046;2023-04-24T08:06:32;2.10;;;1.23;;
3359;SDS011;1693;49.602;11.046;2023-04-24T08:08:59;2.60;;;1.43;;
3359;SDS011;1693;49.602;11.046;2023-04-24T08:11:27;3.00;;;2.07;;
3359;SDS011;1693;49.602;11.046;2023-04-24T08:13:54;1.83;;;1.50;;
3359;SDS011;1693;49.602;11.046;2023-04-24T08:16:22;1.70;;;1.20;;
3359;SDS011;1693;49.602;11.046;2023-04-24T08:18:50;2.30;;;1.60;;
3359;SDS011;1693;49.602;11.046;2023-04-24T08:21:17;1.83;;;1.57;;
3359;SDS011;1693;49.602;11.046;2023-04-24T08:23:45;2.70;;;1.77;;
3359;SDS011;1693;49.602;11.046;2023-04-24T08:26:12;1.70;;;1.53;;
3359;SDS011;1693;49.602;11.046;2023-04-24T08:28:40;1.57;;;1.40;;
3359;SDS011;1693;49.602;11.046;2023-04-24T08:31:07;4.90;;;1.73;;
3359;SDS011;1693;49.602;11.046;2023-04-24T08:33:35;1.67;;;1.47;;
3359;SDS011;1693;49.602;11.046;2023-04-24T08:36:03;1.83;;;1.63;;
3359;SDS011;1693;49.602;11.046;2023-04-24T08:38:31;2.30;;;1.63;;
3359;SDS011;1693;49.602;11.046;2023-04-24T08:40:59;2.10;;;1.90;;
3359;SDS011;1693;49.602;11.046;2023-04-24T08:46:49;2.80;;;2.33;;
3359;SDS011;1693;49.602;11.046;2023-04-24T08:49:18;2.20;;;1.90;;
3359;SDS011;1693;49.602;11.046;2023-04-24T08:51:46;4.90;;;2.50;;
3359;SDS011;1693;49.602;11.046;2023-04-24T08:54:15;2.83;;;2.47;;
3359;SDS011;1693;49.602;11.046;2023-04-24T08:56:43;2.40;;;1.90;;
3359;SDS011;1693;49.602;11.046;2023-04-24T08:59:11;2.23;;;2.03;;
3359;SDS011;1693;49.602;11.046;2023-04-24T09:01:38;3.20;;;2.50;;
3359;SDS011;1693;49.602;11.046;2023-04-24T09:04:07;3.50;;;3.20;;
3359;SDS011;1693;49.602;11.046;2023-04-24T09:06:38;2.70;;;2.30;;
3359;SDS011;1693;49.602;11.046;2023-04-24T09:09:06;3.47;;;2.63;;
3359;SDS011;1693;49.602;11.046;2023-04-24T09:11:34;4.23;;;2.20;;
3359;SDS011;1693;49.602;11.046;2023-04-24T09:14:02;2.40;;;2.10;;
3359;SDS011;1693;49.602;11.046;2023-04-24T09:16:31;6.30;;;2.10;;
3359;SDS011;1693;49.602;11.046;2023-04-24T09:18:58;7.17;;;2.67;;
3359;SDS011;1693;49.602;11.046;2023-04-24T09:21:26;2.00;;;1.80;;
3359;SDS011;1693;49.602;11.046;2023-04-24T09:24:00;2.03;;;1.70;;
3359;SDS011;1693;49.602;11.046;2023-04-24T09:26:29;4.47;;;2.30;;
3359;SDS011;1693;49.602;11.046;2023-04-24T09:28:58;2.70;;;1.37;;
3359;SDS011;1693;49.602;11.046;2023-04-24T09:31:26;2.20;;;1.93;;
3359;SDS011;1693;49.602;11.046;2023-04-24T09:33:55;2.07;;;1.87;;
3359;SDS011;1693;49.602;11.046;2023-04-24T09:36:29;3.10;;;2.30;;
3359;SDS011;1693;49.602;11.046;2023-04-24T09:39:01;2.60;;;1.70;;
3359;SDS011;1693;49.602;11.046;2023-04-24T09:41:29;2.30;;;1.80;;
3359;SDS011;1693;49.602;11.046;2023-04-24T09:44:09;5.43;;;1.90;;
3359;SDS011;1693;49.602;11.046;2023-04-24T09:46:38;3.10;;;2.27;;
3359;SDS011;1693;49.602;11.046;2023-04-24T09:49:08;2.10;;;1.70;;
3359;SDS011;1693;49.602;11.046;2023-04-24T09:51:37;2.10;;;1.90;;
3359;SDS011;1693;49.602;11.046;2023-04-24T09:54:12;2.03;;;1.83;;
3359;SDS011;1693;49.602;11.046;2023-04-24T09:56:43;2.63;;;1.60;;
3359;SDS011;1693;49.602;11.046;2023-04-24T09:59:13;2.47;;;1.93;;
3359;SDS011;1693;49.602;11.046;2023-04-24T10:01:40;1.93;;;1.50;;
3359;SDS011;1693;49.602;11.046;2023-04-24T10:04:17;2.10;;;1.70;;
3359;SDS011;1693;49.602;11.046;2023-04-24T10:06:50;2.17;;;1.73;;
3359;SDS011;1693;49.602;11.046;2023-04-24T10:09:22;2.13;;;1.43;;
3359;SDS011;1693;49.602;11.046;2023-04-24T10:11:51;1.73;;;1.53;;
3359;SDS011;1693;49.602;11.046;2023-04-24T10:14:20;3.40;;;1.97;;
3359;SDS011;1693;49.602;11.046;2023-04-24T10:16:48;4.20;;;1.70;;
3359;SDS011;1693;49.602;11.046;2023-04-24T10:19:18;2.10;;;1.83;;
3359;SDS011;1693;49.602;11.046;2023-04-24T10:21:45;1.77;;;1.47;;
3359;SDS011;1693;49.602;11.046;2023-04-24T10:24:12;1.47;;;1.33;;
3359;SDS011;1693;49.602;11.046;2023-04-24T10:26:42;6.20;;;1.40;;
3359;SDS011;1693;49.602;11.046;2023-04-24T10:29:10;1.70;;;1.40;;
3359;SDS011;1693;49.602;11.046;2023-04-24T10:31:38;1.30;;;1.20;;
3359;SDS011;1693;49.602;11.046;2023-04-24T10:34:06;1.40;;;1.30;;
3359;SDS011;1693;49.602;11.046;2023-04-24T10:36:35;2.43;;;1.20;;
3359;SDS011;1693;49.602;11.046;2023-04-24T10:39:05;1.30;;;0.90;;
3359;SDS011;1693;49.602;11.046;2023-04-24T10:41:37;1.23;;;0.93;;
3359;SDS011;1693;49.602;11.046;2023-04-24T10:44:06;1.40;;;1.03;;
3359;SDS011;1693;49.602;11.046;2023-04-24T10:46:35;1.53;;;1.10;;
3359;SDS011;1693;49.602;11.046;2023-04-24T10:49:03;1.20;;;1.10;;
3359;SDS011;1693;49.602;11.046;2023-04-24T10:51:44;1.30;;;1.20;;
3359;SDS011;1693;49.602;11.046;2023-04-24T10:54:23;2.23;;;1.40;;
3359;SDS011;1693;49.602;11.046;2023-04-24T10:56:52;1.30;;;1.00;;
3359;SDS011;1693;49.602;11.046;2023-04-24T10:59:26;1.73;;;1.00;;
3359;SDS011;1693;49.602;11.046;2023-04-24T11:02:02;1.40;;;1.23;;
3359;SDS011;1693;49.602;11.046;2023-04-24T11:04:29;1.50;;;1.13;;
3359;SDS011;1693;49.602;11.046;2023-04-24T11:06:58;1.43;;;1.20;;
3359;SDS011;1693;49.602;11.046;2023-04-24T11:09:26;2.20;;;1.20;;
3359;SDS011;1693;49.602;11.046;2023-04-24T11:12:03;1.47;;;0.90;;
3359;SDS011;1693;49.602;11.046;2023-04-24T11:17:29;1.30;;;1.20;;
3359;SDS011;1693;49.602;11.046;2023-04-24T11:20:01;1.70;;;1.37;;
3359;SDS011;1693;49.602;11.046;2023-04-24T11:22:32;1.70;;;1.27;;
3359;SDS011;1693;49.602;11.046;2023-04-24T11:25:00;2.67;;;1.87;;
3359;SDS011;1693;49.602;11.046;2023-04-24T11:27:29;1.70;;;1.33;;
3359;SDS011;1693;49.602;11.046;2023-04-24T11:29:59;2.00;;;1.63;;
3359;SDS011;1693;49.602;11.046;2023-04-24T11:32:29;1.87;;;1.67;;
3359;SDS011;1693;49.602;11.046;2023-04-24T11:35:01;3.40;;;1.40;;
3359;SDS011;1693;49.602;11.046;2023-04-24T11:37:33;2.10;;;1.77;;
3359;SDS011;1693;49.602;11.046;2023-04-24T11:40:01;1.53;;;1.37;;
3359;SDS011;1693;49.602;11.046;2023-04-24T11:42:33;1.53;;;1.40;;
3359;SDS011;1693;49.602;11.046;2023-04-24T11:45:02;3.07;;;1.90;;
3359;SDS011;1693;49.602;11.046;2023-04-24T11:47:35;1.60;;;1.33;;
3359;SDS011;1693;49.602;11.046;2023-04-24T11:50:03;1.80;;;1.57;;
3359;SDS011;1693;49.602;11.046;2023-04-24T11:52:32;1.47;;;1.20;;
3359;SDS011;1693;49.602;11.046;2023-04-24T11:55:03;1.60;;;1.33;;
3359;SDS011;1693;49.602;11.046;2023-04-24T11:57:31;1.90;;;1.60;;
3359;SDS011;1693;49.602;11.046;2023-04-24T11:59:59;4.33;;;2.30;;
3359;SDS011;1693;49.602;11.046;2023-04-24T12:02:29;1.73;;;1.63;;
3359;SDS011;1693;49.602;11.046;2023-04-24T12:04:56;2.00;;;1.80;;
3359;SDS011;1693;49.602;11.046;2023-04-24T12:07:23;2.33;;;1.80;;
3359;SDS011;1693;49.602;11.046;2023-04-24T12:09:55;2.07;;;1.57;;
3359;SDS011;1693;49.602;11.046;2023-04-24T12:12:24;1.80;;;1.67;;
3359;SDS011;1693;49.602;11.046;2023-04-24T12:14:53;2.20;;;1.50;;
3359;SDS011;1693;49.602;11.046;2023-04-24T12:17:26;2.20;;;2.00;;
3359;SDS011;1693;49.602;11.046;2023-04-24T12:19:56;3.47;;;1.57;;
3359;SDS011;1693;49.602;11.046;2023-04-24T12:22:25;2.33;;;1.60;;
3359;SDS011;1693;49.602;11.046;2023-04-24T12:24:56;3.50;;;2.00;;
3359;SDS011;1693;49.602;11.046;2023-04-24T12:27:31;2.90;;;1.73;;
3359;SDS011;1693;49.602;11.046;2023-04-24T12:29:59;1.43;;;1.33;;
3359;SDS011;1693;49.602;11.046;2023-04-24T12:32:30;2.73;;;1.80;;
3359;SDS011;1693;49.602;11.046;2023-04-24T12:34:58;2.40;;;2.10;;
3359;SDS011;1693;49.602;11.046;2023-04-24T12:37:25;2.27;;;2.07;;
3359;SDS011;1693;49.602;11.046;2023-04-24T12:39:59;3.00;;;2.00;;
3359;SDS011;1693;49.602;11.046;2023-04-24T12:42:32;2.03;;;1.83;;
3359;SDS011;1693;49.602;11.046;2023-04-24T12:45:01;1.70;;;1.60;;
3359;SDS011;1693;49.602;11.046;2023-04-24T12:47:31;2.47;;;1.73;;
3359;SDS011;1693;49.602;11.046;2023-04-24T12:49:59;1.50;;;1.40;;
3359;SDS011;1693;49.602;11.046;2023-04-24T12:52:27;2.20;;;2.00;;
3359;SDS011;1693;49.602;11.046;2023-04-24T12:54:55;1.97;;;1.73;;
3359;SDS011;1693;49.602;11.046;2023-04-24T12:57:30;2.03;;;1.77;;
3359;SDS011;1693;49.602;11.046;2023-04-24T12:59:58;2.03;;;1.83;;
3359;SDS011;1693;49.602;11.046;2023-04-24T13:02:26;2.20;;;1.70;;
3359;SDS011;1693;49.602;11.046;2023-04-24T13:04:56;1.90;;;1.70;;
3359;SDS011;1693;49.602;11.046;2023-04-24T13:07:24;2.63;;;2.20;;
3359;SDS011;1693;49.602;11.046;2023-04-24T13:09:52;1.87;;;1.40;;
3359;SDS011;1693;49.602;11.046;2023-04-24T13:12:21;1.77;;;1.60;;
3359;SDS011;1693;49.602;11.046;2023-04-24T13:14:48;2.40;;;1.80;;
3359;SDS011;1693;49.602;11.046;2023-04-24T13:17:16;2.67;;;1.80;;
3359;SDS011;1693;49.602;11.046;2023-04-24T13:19:43;2.30;;;1.83;;
3359;SDS011;1693;49.602;11.046;2023-04-24T13:22:12;2.20;;;1.63;;
3359;SDS011;1693;49.602;11.046;2023-04-24T13:24:40;9.50;;;1.70;;
3359;SDS011;1693;49.602;11.046;2023-04-24T13:27:07;2.90;;;1.43;;
3359;SDS011;1693;49.602;11.046;2023-04-24T13:35:25;2.03;;;1.77;;
3359;SDS011;1693;49.602;11.046;2023-04-24T13:37:53;2.30;;;1.80;;
3359;SDS011;1693;49.602;11.046;2023-04-24T13:43:06;3.47;;;1.77;;
3359;SDS011;1693;49.602;11.046;2023-04-24T13:45:40;2.33;;;2.10;;
3359;SDS011;1693;49.602;11.046;2023-04-24T13:48:07;2.03;;;1.83;;
3359;SDS011;1693;49.602;11.046;2023-04-24T13:50:35;4.43;;;2.20;;
3359;SDS011;1693;49.602;11.046;2023-04-24T13:53:03;2.03;;;1.60;;
3359;SDS011;1693;49.602;11.046;2023-04-24T13:55:30;1.97;;;1.77;;
3359;SDS011;1693;49.602;11.046;2023-04-24T13:57:57;3.73;;;1.80;;
3359;SDS011;1693;49.602;11.046;2023-04-24T14:00:25;2.10;;;1.87;;
3359;SDS011;1693;49.602;11.046;2023-04-24T14:02:52;1.50;;;1.30;;
3359;SDS011;1693;49.602;11.046;2023-04-24T14:05:19;2.23;;;1.50;;
3359;SDS011;1693;49.602;11.046;2023-04-24T14:07:47;1.40;;;1.13;;
3359;SDS011;1693;49.602;11.046;2023-04-24T14:10:15;1.57;;;1.40;;
3359;SDS011;1693;49.602;11.046;2023-04-24T14:12:42;2.30;;;1.40;;
3359;SDS011;1693;49.602;11.046;2023-04-24T14:15:10;1.50;;;1.37;;
3359;SDS011;1693;49.602;11.046;2023-04-24T14:17:38;2.13;;;1.77;;
3359;SDS011;1693;49.602;11.046;2023-04-24T14:20:06;1.87;;;1.77;;
3359;SDS011;1693;49.602;11.046;2023-04-24T14:22:37;1.83;;;1.37;;
3359;SDS011;1693;49.602;11.046;2023-04-24T14:25:18;1.83;;;1.70;;
3359;SDS011;1693;49.602;11.046;2023-04-24T14:27:48;3.87;;;2.40;;
3359;SDS011;1693;49.602;11.046;2023-04-24T14:33:28;5.07;;;2.10;;
3359;SDS011;1693;49.602;11.046;2023-04-24T14:35:56;2.37;;;2.10;;
3359;SDS011;1693;49.602;11.046;2023-04-24T14:41:40;3.33;;;2.33;;
3359;SDS011;1693;49.602;11.046;2023-04-24T14:44:08;3.90;;;2.50;;
3359;SDS011;1693;49.602;11.046;2023-04-24T14:46:35;2.53;;;2.03;;
3359;SDS011;1693;49.602;11.046;2023-04-24T14:49:02;2.60;;;2.13;;
3359;SDS011;1693;49.602;11.046;2023-04-24T14:51:30;2.80;;;1.90;;
3359;SDS011;1693;49.602;11.046;2023-04-24T14:53:58;6.40;;;3.00;;
3359;SDS011;1693;49.602;11.046;2023-04-24T14:56:25;3.77;;;1.67;;
3359;SDS011;1693;49.602;11.046;2023-04-24T14:58:53;2.13;;;1.70;;
3359;SDS011;1693;49.602;11.046;2023-04-24T15:01:22;4.50;;;1.90;;
3359;SDS011;1693;49.602;11.046;2023-04-24T15:03:50;2.00;;;1.80;;
3359;SDS011;1693;49.602;11.046;2023-04-24T15:06:17;2.60;;;1.80;;
3359;SDS011;1693;49.602;11.046;2023-04-24T15:08:45;3.00;;;1.53;;
3359;SDS011;1693;49.602;11.046;2023-04-24T15:11:12;2.00;;;1.67;;
3359;SDS011;1693;49.602;11.046;2023-04-24T15:13:39;1.77;;;1.63;;
3359;SDS011;1693;49.602;11.046;2023-04-24T15:16:08;2.87;;;2.17;;
3359;SDS011;1693;49.602;11.046;2023-04-24T15:18:35;2.30;;;2.10;;
3359;SDS011;1693;49.602;11.046;2023-04-24T15:21:02;3.80;;;2.43;;
3359;SDS011;1693;49.602;11.046;2023-04-24T15:23:29;2.40;;;1.90;;
3359;SDS011;1693;49.602;11.046;2023-04-24T15:25:56;3.30;;;2.57;;
3359;SDS011;1693;49.602;11.046;2023-04-24T15:28:24;3.17;;;2.23;;
3359;SDS011;1693;49.602;11.046;2023-04-24T15:30:51;3.87;;;2.33;;